Terminal Aerodrome Forecast
Issued by NWS

Home | Current Version | Previous Version | Graphics & Text | Print | Product List | Glossary On
Versions: 1 2 3 4 5 6 7 8 9 10 11 12 13 14 15 16 17 18 19 20 21 22
000
FTUS43 KMPX 241700
TAFRWF
TAF
KRWF 241729Z 2418/2518 31010KT 5SM BR OVC004
     FM242100 30007KT 6SM BR OVC008
     FM250000 21007KT P6SM SCT006 OVC012
     FM250400 19007KT P6SM SCT020 OVC070
     FM250900 18006KT 4SM BR SCT007 OVC015
     FM251200 19004KT 3SM BR OVC004=

USA.gov is the U.S. government's official web portal to all federal, state and local government web resources and services.